Todos
Magowra Airport YMOA Condições meteorológicas
There is no TAF data available at YMOA. Showing TAF data for YNTN (15 mi NE).
NTN Previsão da área de terminais (sem dados para YMOA)
| Date | Time (AEST) | Flight Rules | Wind Dir. | Speed | Type | Height AGL (ft) | Visibility | Remarks | ||||||
|---|---|---|---|---|---|---|---|---|---|---|---|---|---|---|
| 03-Mai | 11:00 | VFR | 70° | 8 kt | Clouds and Visibility are OK | >= 6 miles | ||||||||
| 03-Mai | 10:00 | VFR | 70° | 8 kt | Clouds and Visibility are OK | >= 6 miles | ||||||||
| 03-Mai | 09:00 | VFR | 70° | 8 kt | Clouds and Visibility are OK | >= 6 miles | ||||||||
| 03-Mai | 08:00 | VFR | 70° | 8 kt | Clouds and Visibility are OK | >= 6 miles | ||||||||
| 03-Mai | 07:00 | VFR | 70° | 8 kt | Clouds and Visibility are OK | >= 6 miles | ||||||||
| 03-Mai | 06:00 | VFR | 70° | 8 kt | Clouds and Visibility are OK | >= 6 miles | ||||||||
| 03-Mai | 05:00 | VFR | 220° | 6 kt | Clouds and Visibility are OK | >= 6 miles | ||||||||
| 03-Mai | 04:00 | VFR | 220° | 6 kt | Clouds and Visibility are OK | >= 6 miles | ||||||||
| 03-Mai | 03:00 | VFR | 220° | 6 kt | Clouds and Visibility are OK | >= 6 miles | ||||||||
| 03-Mai | 02:00 | VFR | 220° | 6 kt | Clouds and Visibility are OK | >= 6 miles | ||||||||
| 03-Mai | 01:00 | VFR | 220° | 6 kt | Clouds and Visibility are OK | >= 6 miles | ||||||||
| 03-Mai | 00:00 | VFR | 220° | 6 kt | Clouds and Visibility are OK | >= 6 miles | ||||||||
There is no METAR data available at YMOA. Showing METAR data for YNTN (15 mi NE).
Histórico recente de METAR NTN (sem dados para YMOA)
| Date | Time (AEST) | Flight Rules | Wind Dir. | Speed | Type | Height AGL (ft) | Visibility | Temp (°C) | Temp (°F) | Dew Point (°C) | Dew Point (°F) | Rel. Humid. | Pressure | Density Altitude | Remarks |
|---|---|---|---|---|---|---|---|---|---|---|---|---|---|---|---|
| 03-Mai | 00:00 | VFR | 220° | 5 kt | 10000 meters | 24° | 75° | 21° | 69° | 83% | 1012 mb | 1.189 ft | |||
| 02-Mai | 23:00 | VFR | 230° | 5 kt | 10000 meters | 25° | 77° | 21° | 69° | 79% | 1012 mb | 1.309 ft | |||
| 02-Mai | 22:00 | VFR | 260° | 5 kt | 10000 meters | 25° | 77° | 21° | 69° | 79% | 1013 mb | 1.279 ft | |||
| 02-Mai | 21:00 | VFR | 290° | 5 kt | 10000 meters | 27° | 80° | 20° | 68° | 66% | 1012 mb | 1.549 ft | |||
| 02-Mai | 20:00 | VFR | Calm | 10000 meters | 28° | 82° | 19° | 66° | 58% | 1011 mb | 1.698 ft | ||||
| 02-Mai | 19:00 | VFR | 130° | 3 kt | 10000 meters | 30° | 86° | 19° | 66° | 52% | 1010 mb | 1.968 ft | |||
| 02-Mai | 18:00 | VFR | 120° | 4 kt | 10000 meters | 32° | 89° | 19° | 66° | 46% | 1010 mb | 2.208 ft | |||
| 02-Mai | 17:00 | VFR | 130° | 6 kt | 10000 meters | 33° | 91° | 19° | 66° | 44% | 1010 mb | 2.328 ft | |||
| 02-Mai | 16:00 | VFR | 110° | 6 kt | 10000 meters | 34° | 93° | 18° | 64° | 39% | 1010 mb | 2.448 ft | |||
| 02-Mai | 15:00 | VFR | 130° | 6 kt | 10000 meters | 34° | 93° | 19° | 66° | 41% | 1010 mb | 2.448 ft | |||
| 02-Mai | 14:00 | VFR | 90° | 5 kt | 10000 meters | 34° | 93° | 20° | 68° | 44% | 1010 mb | 2.448 ft | |||
| 02-Mai | 13:00 | VFR | 140° | 6 kt | 10000 meters | 33° | 91° | 20° | 68° | 46% | 1011 mb | 2.298 ft | |||
| 02-Mai | 12:00 | VFR | 110° | 6 kt | 10000 meters | 32° | 89° | 20° | 68° | 49% | 1012 mb | 2.149 ft | |||
| 02-Mai | 11:00 | VFR | 100° | 7 kt | 10000 meters | 31° | 87° | 20° | 68° | 52% | 1013 mb | 1.999 ft | |||
| 02-Mai | 10:00 | VFR | 70° | 7 kt | 10000 meters | 29° | 84° | 20° | 68° | 58% | 1014 mb | 1.730 ft | |||
| 02-Mai | 09:00 | VFR | 70° | 9 kt | 10000 meters | 27° | 80° | 20° | 68° | 66% | 1014 mb | 1.490 ft | |||
| 02-Mai | 08:00 | VFR | 60° | 7 kt | 10000 meters | 25° | 77° | 20° | 68° | 74% | 1014 mb | 1.250 ft | |||
| 02-Mai | 07:00 | VFR | 70° | 5 kt | 10000 meters | 23° | 73° | 20° | 68° | 83% | 1013 mb | 1.039 ft | |||
| 02-Mai | 06:00 | VFR | 80° | 5 kt | 10000 meters | 23° | 73° | 20° | 68° | 83% | 1013 mb | 1.039 ft | |||
| 02-Mai | 05:00 | VFR | 80° | 5 kt | 10000 meters | 23° | 73° | 20° | 68° | 83% | 1012 mb | 1.069 ft | |||
| 02-Mai | 04:00 | VFR | 120° | 4 kt | 10000 meters | 24° | 75° | 19° | 66° | 74% | 1012 mb | 1.189 ft | |||
| 02-Mai | 03:00 | VFR | 140° | 4 kt | 10000 meters | 24° | 75° | 19° | 66° | 74% | 1012 mb | 1.189 ft | |||
| 02-Mai | 02:00 | VFR | 170° | 6 kt | 10000 meters | 24° | 75° | 20° | 68° | 78% | 1012 mb | 1.189 ft | |||
| 02-Mai | 01:00 | VFR | 240° | 3 kt | 10000 meters | 24° | 75° | 21° | 69° | 83% | 1013 mb | 1.159 ft |
Entrar
| Seu navegador não suporta. atualize seu navegador |
